createdAt,value
2023-08-31T00:00:35.100Z,13.73
2023-08-31T00:03:03.936Z,14.17
2023-08-31T00:05:35.712Z,15.07
2023-08-31T00:08:04.705Z,15.00
2023-08-31T00:10:33.525Z,14.33
2023-08-31T00:13:03.927Z,14.43
2023-08-31T00:15:34.055Z,14.27
2023-08-31T00:18:04.839Z,14.37
2023-08-31T00:20:34.827Z,14.83
2023-08-31T00:23:04.735Z,14.80
2023-08-31T00:25:37.284Z,15.37
2023-08-31T00:28:08.901Z,14.33
2023-08-31T00:30:37.902Z,14.87
2023-08-31T00:33:07.282Z,13.67
2023-08-31T00:35:45.081Z,14.07
2023-08-31T00:38:14.015Z,15.73
2023-08-31T00:40:43.923Z,15.37
2023-08-31T00:43:16.776Z,15.43
2023-08-31T00:45:46.413Z,14.80
2023-08-31T00:48:18.661Z,15.93
2023-08-31T00:50:48.007Z,13.50
2023-08-31T00:53:17.527Z,19.03
2023-08-31T00:55:47.342Z,14.63
2023-08-31T00:58:17.707Z,16.83
2023-08-31T01:00:54.436Z,14.00
2023-08-31T01:03:32.287Z,18.00
2023-08-31T01:06:12.196Z,15.60
2023-08-31T01:08:52.424Z,14.77
2023-08-31T01:11:33.238Z,16.67
2023-08-31T01:14:12.740Z,15.07
2023-08-31T01:16:46.210Z,14.97
2023-08-31T01:19:29.543Z,15.83
2023-08-31T01:22:02.941Z,16.00
2023-08-31T01:24:34.310Z,16.77
2023-08-31T01:27:03.284Z,18.73
2023-08-31T01:29:33.004Z,15.33
2023-08-31T01:32:07.307Z,19.83
2023-08-31T01:34:36.695Z,14.67
2023-08-31T01:37:14.216Z,15.63
2023-08-31T01:39:50.163Z,15.87
2023-08-31T01:42:19.683Z,18.83
2023-08-31T01:44:50.631Z,15.17
2023-08-31T01:47:20.618Z,18.37
2023-08-31T01:49:51.831Z,16.90
2023-08-31T01:52:23.498Z,20.50
2023-08-31T01:54:53.596Z,17.67
2023-08-31T01:57:22.236Z,20.30
2023-08-31T01:59:50.935Z,17.87
2023-08-31T02:02:19.797Z,21.30
2023-08-31T02:04:49.287Z,18.20
2023-08-31T02:07:18.046Z,17.23
2023-08-31T02:09:46.833Z,17.90
2023-08-31T02:12:17.480Z,18.50
2023-08-31T02:14:46.374Z,19.17
2023-08-31T02:17:15.204Z,16.77
2023-08-31T02:19:43.930Z,20.70
2023-08-31T02:22:12.917Z,17.30
2023-08-31T02:24:47.876Z,18.47
2023-08-31T02:27:19.539Z,17.83
2023-08-31T02:29:53.294Z,19.40
2023-08-31T02:32:24.214Z,21.90
2023-08-31T02:34:53.167Z,17.20
2023-08-31T02:37:22.032Z,21.00
2023-08-31T02:39:52.484Z,18.00
2023-08-31T02:42:22.638Z,19.30
2023-08-31T02:44:55.105Z,18.20
2023-08-31T02:47:23.948Z,20.53
2023-08-31T02:49:52.744Z,20.17
2023-08-31T02:52:21.653Z,21.80
2023-08-31T02:54:50.461Z,20.43
2023-08-31T02:57:21.006Z,19.00
2023-08-31T02:59:53.741Z,18.83
2023-08-31T03:02:23.320Z,20.60
2023-08-31T03:04:52.251Z,17.23
2023-08-31T03:07:23.725Z,18.13
2023-08-31T03:09:55.539Z,17.40
2023-08-31T03:12:26.462Z,20.80
2023-08-31T03:14:58.070Z,17.77
2023-08-31T03:17:28.941Z,18.60
2023-08-31T03:19:57.786Z,17.43
2023-08-31T03:22:26.783Z,18.10
2023-08-31T03:24:55.780Z,16.70
2023-08-31T03:27:24.790Z,17.83
2023-08-31T03:29:56.111Z,16.00
2023-08-31T03:32:26.375Z,18.70
2023-08-31T03:34:58.715Z,16.83
2023-08-31T03:37:27.544Z,18.67
2023-08-31T03:39:58.348Z,16.43
2023-08-31T03:42:28.740Z,20.03
2023-08-31T03:44:57.750Z,20.53
2023-08-31T03:47:33.340Z,21.67
2023-08-31T03:50:02.425Z,16.17
2023-08-31T03:52:31.448Z,22.20
2023-08-31T03:55:00.416Z,18.10
2023-08-31T03:57:29.238Z,19.93
2023-08-31T03:59:58.084Z,19.27
2023-08-31T04:02:28.553Z,23.67
2023-08-31T04:04:57.559Z,20.30
2023-08-31T04:07:26.878Z,25.70
2023-08-31T04:09:56.140Z,19.07
2023-08-31T04:12:25.038Z,24.27
2023-08-31T04:14:54.919Z,20.70
2023-08-31T04:17:24.110Z,24.87
2023-08-31T04:19:58.300Z,20.73
2023-08-31T04:22:28.082Z,22.53
2023-08-31T04:24:58.567Z,19.00
2023-08-31T04:27:27.964Z,20.00
2023-08-31T04:29:56.808Z,17.83
2023-08-31T04:32:26.930Z,20.20
2023-08-31T04:34:59.609Z,17.53
2023-08-31T04:37:30.733Z,19.63
2023-08-31T04:40:08.410Z,19.40
2023-08-31T04:42:38.143Z,20.67
2023-08-31T04:45:10.294Z,16.87
2023-08-31T04:47:42.841Z,17.00
2023-08-31T04:50:15.426Z,19.77
2023-08-31T04:52:59.861Z,20.33
2023-08-31T04:55:38.938Z,24.87
2023-08-31T04:58:24.358Z,18.40
2023-08-31T05:00:56.135Z,20.93
2023-08-31T05:03:33.232Z,24.97
2023-08-31T05:06:09.453Z,18.97
2023-08-31T05:08:48.357Z,22.47
2023-08-31T05:11:19.597Z,20.43
2023-08-31T05:13:52.062Z,18.03
2023-08-31T05:16:31.754Z,20.00
2023-08-31T05:19:11.629Z,19.73
2023-08-31T05:21:48.469Z,23.73
2023-08-31T05:24:28.343Z,18.30
2023-08-31T05:26:57.664Z,20.53
2023-08-31T05:29:30.080Z,26.83
2023-08-31T05:31:59.546Z,21.80
2023-08-31T05:34:33.475Z,23.20
2023-08-31T05:37:07.633Z,21.73
2023-08-31T05:39:36.521Z,25.47
2023-08-31T05:42:05.894Z,27.43
2023-08-31T05:44:34.772Z,30.43
2023-08-31T05:47:04.793Z,24.33
2023-08-31T05:49:37.147Z,25.73
2023-08-31T05:52:22.384Z,21.30
2023-08-31T05:54:55.486Z,20.87
2023-08-31T05:57:24.899Z,25.27
2023-08-31T05:59:53.690Z,30.93
2023-08-31T06:02:22.440Z,19.33
2023-08-31T06:04:51.800Z,19.97
2023-08-31T06:07:30.168Z,19.17
2023-08-31T06:10:00.252Z,17.90
2023-08-31T06:12:29.074Z,23.40
2023-08-31T06:14:57.744Z,21.80
2023-08-31T06:17:26.890Z,26.43
2023-08-31T06:19:55.625Z,22.67
2023-08-31T06:22:25.918Z,18.50
2023-08-31T06:25:00.487Z,18.77
2023-08-31T06:27:30.337Z,19.67
2023-08-31T06:30:01.801Z,21.33
2023-08-31T06:32:30.813Z,21.30
2023-08-31T06:34:59.607Z,20.60
2023-08-31T06:37:29.758Z,24.87
2023-08-31T06:39:58.623Z,20.63
2023-08-31T06:42:27.625Z,22.13
2023-08-31T06:44:58.208Z,21.03
2023-08-31T06:47:27.033Z,20.03
2023-08-31T06:49:55.753Z,22.03
2023-08-31T06:52:31.366Z,21.47
2023-08-31T06:55:02.485Z,20.70
2023-08-31T06:57:31.461Z,21.07
2023-08-31T07:00:00.168Z,20.00
2023-08-31T07:02:31.154Z,22.03
2023-08-31T07:05:00.116Z,20.13
2023-08-31T07:07:29.121Z,25.93
2023-08-31T07:09:58.150Z,19.50
2023-08-31T07:12:28.344Z,22.73
2023-08-31T07:14:57.066Z,23.50
2023-08-31T07:17:25.847Z,23.57
2023-08-31T07:19:59.416Z,22.33
2023-08-31T07:22:28.495Z,24.57
2023-08-31T07:24:58.363Z,21.60
2023-08-31T07:27:28.710Z,22.73
2023-08-31T07:29:57.614Z,22.07
2023-08-31T07:32:26.384Z,21.23
2023-08-31T07:34:57.807Z,21.60
2023-08-31T07:37:26.696Z,19.47
2023-08-31T07:39:58.634Z,21.03
2023-08-31T07:42:28.802Z,21.73
2023-08-31T07:44:57.566Z,22.20
2023-08-31T07:47:26.398Z,22.40
2023-08-31T07:49:55.477Z,22.07
2023-08-31T07:52:24.410Z,21.53
2023-08-31T07:54:53.236Z,21.57
2023-08-31T07:57:22.029Z,21.23
2023-08-31T07:59:57.741Z,23.87
2023-08-31T08:02:26.544Z,22.70
2023-08-31T08:04:55.315Z,22.27
2023-08-31T08:07:23.989Z,21.33
2023-08-31T08:09:52.856Z,23.33
2023-08-31T08:12:21.565Z,20.70
2023-08-31T08:14:51.886Z,21.57
2023-08-31T08:17:20.839Z,22.53
2023-08-31T08:19:49.739Z,20.67
2023-08-31T08:22:20.672Z,21.73
2023-08-31T08:24:51.933Z,19.80
2023-08-31T08:27:22.608Z,20.53
2023-08-31T08:29:52.751Z,23.90
2023-08-31T08:32:21.866Z,21.60
2023-08-31T08:34:50.670Z,23.00
2023-08-31T08:37:21.810Z,20.20
2023-08-31T08:39:54.222Z,23.03
2023-08-31T08:42:26.657Z,21.17
2023-08-31T08:44:59.051Z,22.47
2023-08-31T08:47:32.188Z,20.67
2023-08-31T08:50:01.986Z,20.43
2023-08-31T08:52:31.420Z,20.67
2023-08-31T08:55:03.967Z,20.33
2023-08-31T08:57:33.731Z,21.80
2023-08-31T09:00:04.592Z,19.57
2023-08-31T09:02:33.591Z,22.27
2023-08-31T09:05:02.657Z,21.83
2023-08-31T09:07:37.662Z,21.43
2023-08-31T09:10:24.507Z,20.70
2023-08-31T09:12:58.629Z,23.67
2023-08-31T09:15:38.008Z,20.67
2023-08-31T09:18:07.551Z,20.73
2023-08-31T09:20:51.826Z,20.40
2023-08-31T09:23:20.882Z,21.73
2023-08-31T09:25:55.106Z,20.73
2023-08-31T09:28:28.884Z,21.73
2023-08-31T09:31:07.481Z,20.03
2023-08-31T09:33:42.120Z,21.67
2023-08-31T09:36:11.061Z,19.87
2023-08-31T09:38:54.120Z,25.60
2023-08-31T09:41:23.466Z,21.83
2023-08-31T09:43:56.487Z,21.60
2023-08-31T09:46:29.749Z,20.97
2023-08-31T09:49:04.514Z,25.87
2023-08-31T09:51:33.801Z,22.13
2023-08-31T09:54:04.790Z,21.77
2023-08-31T09:56:36.952Z,23.07
2023-08-31T09:59:06.108Z,22.47
2023-08-31T10:01:42.768Z,20.93
2023-08-31T10:04:12.453Z,21.37
2023-08-31T10:06:42.158Z,22.90
2023-08-31T10:09:12.908Z,22.23
2023-08-31T10:11:45.145Z,24.90
2023-08-31T10:14:22.206Z,22.13
2023-08-31T10:16:54.847Z,21.10
2023-08-31T10:19:25.400Z,21.17
2023-08-31T10:21:54.322Z,22.20
2023-08-31T10:24:58.869Z,21.40
2023-08-31T10:27:27.757Z,21.33
2023-08-31T10:29:59.684Z,21.43
2023-08-31T10:32:45.291Z,21.07
2023-08-31T10:35:20.862Z,20.73
2023-08-31T10:37:49.582Z,22.60
2023-08-31T10:40:19.430Z,21.00
2023-08-31T10:42:53.498Z,20.60
2023-08-31T10:45:22.924Z,20.53
2023-08-31T10:47:56.010Z,24.33
2023-08-31T10:50:27.087Z,21.43
2023-08-31T10:52:55.854Z,21.03
2023-08-31T10:55:27.884Z,20.53
2023-08-31T10:58:00.054Z,23.33
2023-08-31T11:00:53.578Z,23.10
2023-08-31T11:03:26.805Z,22.77
2023-08-31T11:05:56.025Z,22.13
2023-08-31T11:08:28.613Z,22.13
2023-08-31T11:10:57.786Z,21.67
2023-08-31T11:13:26.773Z,20.90
2023-08-31T11:15:55.674Z,21.73
2023-08-31T11:18:34.487Z,21.93
2023-08-31T11:21:06.969Z,20.73
2023-08-31T11:23:36.904Z,21.60
2023-08-31T11:26:06.690Z,19.37
2023-08-31T11:28:36.388Z,20.63
2023-08-31T11:31:05.157Z,20.03
2023-08-31T11:33:37.473Z,21.77
2023-08-31T11:36:09.280Z,20.57
2023-08-31T11:38:39.067Z,19.63
2023-08-31T11:41:07.999Z,21.00
2023-08-31T11:43:36.774Z,19.80
2023-08-31T11:46:06.519Z,19.67
2023-08-31T11:48:37.178Z,23.03
2023-08-31T11:51:09.305Z,20.37
2023-08-31T11:53:40.697Z,20.37
2023-08-31T11:56:09.748Z,20.00
2023-08-31T11:59:03.618Z,20.60
2023-08-31T12:01:33.577Z,20.33
2023-08-31T12:04:04.182Z,19.97
2023-08-31T12:06:35.674Z,19.77
2023-08-31T12:09:08.449Z,20.10
2023-08-31T12:11:37.485Z,22.70
2023-08-31T12:14:20.412Z,20.17
2023-08-31T12:16:49.494Z,22.27
2023-08-31T12:19:20.656Z,20.80
2023-08-31T12:21:53.997Z,21.57
2023-08-31T12:24:29.105Z,20.03
2023-08-31T12:26:57.948Z,23.93
2023-08-31T12:29:26.855Z,20.47
2023-08-31T12:31:55.915Z,22.40
2023-08-31T12:34:27.264Z,21.03
2023-08-31T12:37:00.850Z,22.57
2023-08-31T12:39:29.759Z,20.27
2023-08-31T12:42:16.631Z,23.70
2023-08-31T12:44:51.669Z,22.90
2023-08-31T12:47:23.411Z,20.27
2023-08-31T12:49:53.502Z,22.70
2023-08-31T12:52:22.380Z,21.17
2023-08-31T12:54:51.287Z,21.47
2023-08-31T12:57:20.128Z,19.77
2023-08-31T12:59:51.658Z,22.97
2023-08-31T13:02:26.351Z,20.47
2023-08-31T13:04:59.011Z,20.83
2023-08-31T13:07:27.745Z,22.73
2023-08-31T13:09:56.779Z,20.37
2023-08-31T13:12:25.577Z,21.53
2023-08-31T13:14:57.416Z,21.07
2023-08-31T13:17:29.699Z,22.17
2023-08-31T13:19:59.928Z,26.07
2023-08-31T13:22:30.333Z,22.90
2023-08-31T13:24:59.146Z,24.33
2023-08-31T13:27:27.920Z,22.67
2023-08-31T13:29:56.621Z,23.40
2023-08-31T13:32:27.787Z,22.50
2023-08-31T13:34:56.666Z,23.30
2023-08-31T13:37:27.305Z,22.57
2023-08-31T13:39:56.116Z,22.63
2023-08-31T13:42:25.503Z,21.57
2023-08-31T13:45:04.888Z,23.30
2023-08-31T13:47:36.588Z,22.23
2023-08-31T13:50:06.048Z,23.03
2023-08-31T13:52:36.236Z,22.60
2023-08-31T13:55:06.125Z,23.00
2023-08-31T13:57:34.877Z,21.63
2023-08-31T14:00:10.252Z,21.80
2023-08-31T14:02:42.223Z,21.40
2023-08-31T14:05:14.594Z,22.37
2023-08-31T14:07:46.309Z,23.40
2023-08-31T14:10:16.235Z,22.20
2023-08-31T14:12:54.784Z,23.53
2023-08-31T14:15:24.384Z,20.20
2023-08-31T14:18:00.426Z,23.33
2023-08-31T14:20:29.542Z,22.20
2023-08-31T14:23:01.131Z,24.13
2023-08-31T14:25:34.284Z,21.27
2023-08-31T14:28:05.462Z,22.13
2023-08-31T14:30:34.412Z,21.83
2023-08-31T14:33:05.741Z,21.33
2023-08-31T14:35:38.891Z,21.67
2023-08-31T14:38:11.408Z,22.53
2023-08-31T14:40:43.919Z,22.67
2023-08-31T14:46:02.823Z,24.10
2023-08-31T14:48:36.044Z,21.53
2023-08-31T14:51:10.287Z,22.70
2023-08-31T14:53:41.222Z,22.40
2023-08-31T14:56:10.300Z,22.17
2023-08-31T14:58:39.306Z,22.27
2023-08-31T15:01:09.321Z,23.30
2023-08-31T15:03:38.675Z,22.77
2023-08-31T15:06:07.478Z,22.73
2023-08-31T15:08:43.608Z,22.07
2023-08-31T15:11:15.046Z,22.77
2023-08-31T15:13:45.064Z,22.30
2023-08-31T15:16:15.284Z,22.90
2023-08-31T15:18:44.468Z,21.40
2023-08-31T15:21:16.146Z,21.53
2023-08-31T15:23:46.665Z,22.13
2023-08-31T15:26:18.864Z,22.40
2023-08-31T15:28:49.918Z,21.57
2023-08-31T15:31:19.102Z,21.80
2023-08-31T15:33:47.881Z,23.27
2023-08-31T15:36:20.193Z,21.30
2023-08-31T15:38:51.564Z,24.43
2023-08-31T15:41:20.373Z,22.00
2023-08-31T15:43:49.211Z,23.90
2023-08-31T15:46:21.613Z,22.23
2023-08-31T15:48:52.951Z,25.50
2023-08-31T15:51:24.573Z,21.00
2023-08-31T15:53:55.000Z,23.13
2023-08-31T15:56:26.100Z,21.37
2023-08-31T15:58:54.917Z,21.80
2023-08-31T16:01:27.644Z,21.73
2023-08-31T16:03:56.876Z,21.70
2023-08-31T16:06:31.238Z,21.73
2023-08-31T16:09:01.449Z,21.10
2023-08-31T16:11:33.376Z,21.57
2023-08-31T16:14:04.390Z,21.90
2023-08-31T16:16:33.256Z,22.87
2023-08-31T16:19:02.614Z,25.07
2023-08-31T16:21:31.556Z,22.50
2023-08-31T16:24:01.959Z,22.93
2023-08-31T16:26:31.159Z,23.67
2023-08-31T16:28:59.912Z,24.70
2023-08-31T16:31:28.771Z,21.63
2023-08-31T16:33:58.683Z,24.93
2023-08-31T16:36:27.630Z,23.37
2023-08-31T16:38:56.947Z,23.73
2023-08-31T16:41:27.244Z,23.00
2023-08-31T16:43:57.049Z,23.77
2023-08-31T16:46:26.396Z,22.10
2023-08-31T16:48:55.118Z,25.60
2023-08-31T16:51:24.305Z,23.13
2023-08-31T16:53:53.213Z,25.33
2023-08-31T16:56:24.605Z,23.03
2023-08-31T16:58:55.446Z,23.07
2023-08-31T17:01:25.067Z,22.43
2023-08-31T17:03:53.906Z,23.50
2023-08-31T17:06:26.619Z,21.30
2023-08-31T17:08:56.187Z,23.77
2023-08-31T17:11:27.496Z,22.17
2023-08-31T17:14:00.979Z,21.53
2023-08-31T17:16:29.892Z,23.30
2023-08-31T17:18:59.959Z,24.57
2023-08-31T17:21:28.860Z,22.60
2023-08-31T17:23:57.553Z,24.13
2023-08-31T17:26:28.481Z,20.23
2023-08-31T17:29:01.614Z,22.40
2023-08-31T17:31:30.527Z,20.67
2023-08-31T17:34:03.202Z,24.20
2023-08-31T18:35:16.586Z,20.87
2023-08-31T18:37:45.378Z,20.23
2023-08-31T18:40:16.237Z,21.40
2023-08-31T18:42:45.031Z,18.23
2023-08-31T18:45:17.722Z,20.03
2023-08-31T18:47:47.085Z,20.87
2023-08-31T18:50:21.993Z,20.63
2023-08-31T18:52:51.728Z,20.20
2023-08-31T18:55:22.919Z,19.47
2023-08-31T18:57:53.292Z,20.23
2023-08-31T19:00:24.059Z,19.67
2023-08-31T19:02:53.187Z,22.53
2023-08-31T19:05:24.283Z,20.40
2023-08-31T19:07:53.866Z,19.83
2023-08-31T19:10:25.288Z,19.00
2023-08-31T19:12:54.120Z,20.47
2023-08-31T19:15:23.143Z,20.23
2023-08-31T19:17:54.325Z,21.30
2023-08-31T19:20:35.879Z,19.10
2023-08-31T19:23:08.052Z,18.03
2023-08-31T19:25:40.377Z,18.97
2023-08-31T19:28:09.424Z,21.93
2023-08-31T19:30:41.297Z,19.67
2023-08-31T19:33:10.217Z,20.03
2023-08-31T19:35:57.704Z,19.77
2023-08-31T19:38:28.164Z,20.33
2023-08-31T19:40:58.224Z,20.23
2023-08-31T19:43:27.096Z,19.17
2023-08-31T19:45:56.077Z,20.33
2023-08-31T19:48:25.013Z,20.70
2023-08-31T19:51:06.805Z,18.97
2023-08-31T19:53:35.689Z,18.80
2023-08-31T19:56:05.307Z,22.13
2023-08-31T19:58:35.316Z,20.07
2023-08-31T20:01:04.277Z,20.17
2023-08-31T20:03:39.567Z,20.47
2023-08-31T20:06:11.904Z,20.40
2023-08-31T20:08:40.811Z,19.93
2023-08-31T20:11:09.698Z,19.67
2023-08-31T20:13:38.559Z,18.90
2023-08-31T20:16:07.706Z,19.23
2023-08-31T20:18:36.448Z,19.73
2023-08-31T20:21:06.117Z,21.60
2023-08-31T20:23:38.331Z,21.30
2023-08-31T20:26:07.160Z,22.80
2023-08-31T20:28:38.016Z,19.57
2023-08-31T20:31:07.642Z,21.60
2023-08-31T20:33:37.804Z,21.33
2023-08-31T21:30:29.416Z,19.48
2023-08-31T21:32:58.466Z,20.60
2023-08-31T21:35:27.259Z,18.87
2023-08-31T21:37:56.239Z,22.63
2023-08-31T21:40:24.988Z,19.10
2023-08-31T21:42:53.778Z,19.10
2023-08-31T21:45:22.855Z,18.80
2023-08-31T21:47:55.650Z,18.73
2023-08-31T21:50:24.610Z,20.00
2023-08-31T21:52:54.002Z,20.50
2023-08-31T21:55:23.042Z,18.27
2023-08-31T21:57:52.097Z,18.87
2023-08-31T22:00:23.770Z,19.20
2023-08-31T22:02:54.626Z,19.23
2023-08-31T22:05:26.526Z,18.60
2023-08-31T22:07:57.224Z,19.37
2023-08-31T22:10:28.803Z,19.73
2023-08-31T22:13:00.592Z,19.43
2023-08-31T22:15:29.984Z,19.30
2023-08-31T22:18:00.626Z,20.07
2023-08-31T22:20:33.012Z,20.43
2023-08-31T22:23:02.244Z,21.07
2023-08-31T22:25:31.596Z,18.07
2023-08-31T22:28:00.798Z,19.43
2023-08-31T22:30:30.473Z,18.47
2023-08-31T22:33:00.860Z,20.10
2023-08-31T22:35:29.540Z,19.37
2023-08-31T22:37:58.347Z,21.20
2023-08-31T22:40:27.202Z,19.00
2023-08-31T22:42:55.880Z,18.37
2023-08-31T22:45:27.554Z,18.50
2023-08-31T22:47:59.628Z,18.87
2023-08-31T22:50:29.723Z,18.73
2023-08-31T22:52:58.393Z,18.63
2023-08-31T22:55:27.424Z,19.63
2023-08-31T22:57:56.330Z,18.70
2023-08-31T23:00:27.484Z,19.17
2023-08-31T23:02:56.511Z,17.97
2023-08-31T23:05:26.935Z,18.63
2023-08-31T23:07:57.151Z,20.07
2023-08-31T23:10:32.246Z,19.10
2023-08-31T23:13:01.428Z,20.43
2023-08-31T23:15:42.375Z,19.40
2023-08-31T23:18:11.668Z,20.47
2023-08-31T23:20:41.075Z,20.17
2023-08-31T23:23:18.360Z,20.30
2023-08-31T23:25:50.285Z,19.20
2023-08-31T23:28:19.155Z,20.87
2023-08-31T23:30:49.639Z,18.27
2023-08-31T23:33:18.527Z,20.53
2023-08-31T23:35:47.286Z,20.07
2023-08-31T23:38:17.482Z,18.90
2023-08-31T23:40:46.318Z,19.03
2023-08-31T23:43:15.553Z,19.20
2023-08-31T23:45:44.414Z,18.07
2023-08-31T23:48:15.713Z,19.97
2023-08-31T23:50:44.699Z,18.23
2023-08-31T23:53:13.480Z,20.77
2023-08-31T23:55:44.571Z,18.83
2023-08-31T23:58:14.766Z,21.20
